Time;durP1;ratioP1;P1;durP2;ratioP2;P2;SDS_P1;SDS_P2;PMS_P1;PMS_P2;Temp;Humidity;BMP_temperature;BMP_pressure;BME280_temperature;BME280_humidity;BME280_pressure;Samples;Min_cycle;Max_cycle;Signal;HPM_P1;HPM_P2
2022/09/30 00:00:58;;;;;;;;;;;10.00;99.90;;;;;;5115918;28;19930;-77
2022/09/30 00:03:24;;;;;;;;;;;10.00;99.90;;;;;;5115909;28;19908;-77
2022/09/30 00:05:59;;;;;;;;;;;10.10;99.90;;;;;;5116047;28;20280;-75
2022/09/30 00:08:25;;;;;;;;;;;10.00;99.90;;;;;;5116056;28;19950;-78
2022/09/30 00:11:15;;;;;;;;;;;10.00;99.90;;;;;;5115803;28;19908;-76
2022/09/30 00:13:40;;;;;;;;;;;10.00;99.90;;;;;;5115970;28;20371;-76
2022/09/30 00:16:07;;;;;;;;;;;9.90;99.90;;;;;;5115918;28;19915;-76
2022/09/30 00:18:33;;;;;;;;;;;10.00;99.90;;;;;;5115684;28;19960;-78
2022/09/30 00:20:59;;;;;;;;;;;9.90;99.90;;;;;;5115467;28;20322;-75
2022/09/30 00:23:24;;;;;;;;;;;9.90;99.90;;;;;;5115491;28;19907;-76
2022/09/30 00:25:50;;;;;;;;;;;9.60;99.90;;;;;;5115467;28;19933;-75
2022/09/30 00:28:16;;;;;;;;;;;9.60;99.90;;;;;;5115679;28;19918;-77
2022/09/30 00:30:42;;;;;;;;;;;9.60;99.90;;;;;;5115486;28;20002;-78
2022/09/30 00:33:08;;;;;;;;;;;9.60;99.90;;;;;;5115382;28;20268;-78
2022/09/30 00:35:33;;;;;;;;;;;9.70;99.90;;;;;;5115756;28;19908;-77
2022/09/30 00:37:59;;;;;;;;;;;9.70;99.90;;;;;;5115260;28;20002;-78
2022/09/30 00:40:25;;;;;;;;;;;9.70;99.90;;;;;;5115328;28;20264;-77
2022/09/30 00:42:51;;;;;;;;;;;9.70;99.90;;;;;;5115190;28;20271;-76
2022/09/30 00:45:17;;;;;;;;;;;9.70;99.90;;;;;;5115015;28;19907;-78
2022/09/30 00:47:54;;;;;;;;;;;9.70;99.90;;;;;;5114791;28;19923;-78
2022/09/30 00:50:35;;;;;;;;;;;9.60;99.90;;;;;;5114954;28;19907;-78
2022/09/30 00:53:01;;;;;;;;;;;9.50;99.90;;;;;;5114940;28;19908;-77
2022/09/30 00:55:38;;;;;;;;;;;9.50;99.90;;;;;;5114587;28;19907;-75
2022/09/30 00:58:05;;;;;;;;;;;9.50;99.90;;;;;;5115066;28;19915;-76
2022/09/30 01:00:31;;;;;;;;;;;9.60;99.90;;;;;;5096527;28;19914;-77
2022/09/30 01:02:56;;;;;;;;;;;9.60;99.90;;;;;;5114773;28;19998;-78
2022/09/30 01:05:25;;;;;;;;;;;9.60;99.90;;;;;;5114745;28;19915;-77
2022/09/30 01:07:51;;;;;;;;;;;9.40;99.90;;;;;;5114659;28;19911;-75
2022/09/30 01:10:16;;;;;;;;;;;9.20;99.90;;;;;;5114819;28;19930;-76
2022/09/30 01:12:42;;;;;;;;;;;9.10;99.90;;;;;;5114618;28;19908;-78
2022/09/30 01:15:08;;;;;;;;;;;9.20;99.90;;;;;;5114824;28;19907;-77
2022/09/30 01:17:34;;;;;;;;;;;9.20;99.90;;;;;;5114520;28;19911;-76
2022/09/30 01:20:02;;;;;;;;;;;9.10;99.90;;;;;;5114674;28;19912;-77
2022/09/30 01:22:28;;;;;;;;;;;9.20;99.90;;;;;;5114572;28;19973;-77
2022/09/30 01:24:59;;;;;;;;;;;9.20;99.90;;;;;;5114458;28;20359;-78
2022/09/30 01:27:42;;;;;;;;;;;8.90;99.90;;;;;;5114312;28;19960;-76
2022/09/30 01:30:19;;;;;;;;;;;8.80;99.90;;;;;;5114568;28;20288;-78
2022/09/30 01:32:48;;;;;;;;;;;8.80;99.90;;;;;;5114349;28;19908;-76
2022/09/30 01:35:17;;;;;;;;;;;9.00;99.90;;;;;;5114817;28;20265;-76
2022/09/30 01:37:57;;;;;;;;;;;9.10;99.90;;;;;;5114448;28;20012;-77
2022/09/30 01:40:29;;;;;;;;;;;9.10;99.90;;;;;;5114462;28;19919;-75
2022/09/30 01:43:00;;;;;;;;;;;8.80;99.90;;;;;;5114281;28;19911;-79
2022/09/30 01:45:46;;;;;;;;;;;9.00;99.90;;;;;;5114298;28;20360;-74
2022/09/30 01:48:15;;;;;;;;;;;9.20;99.90;;;;;;5079082;28;19920;-76
2022/09/30 01:50:52;;;;;;;;;;;9.20;99.90;;;;;;5093725;28;19934;-75
2022/09/30 01:53:22;;;;;;;;;;;9.10;99.90;;;;;;5094190;28;19995;-77
2022/09/30 01:56:08;;;;;;;;;;;9.10;99.90;;;;;;5094119;28;20356;-75
2022/09/30 01:58:52;;;;;;;;;;;9.20;99.90;;;;;;5093141;28;19912;-78
2022/09/30 02:01:21;;;;;;;;;;;9.20;99.90;;;;;;5093660;28;19912;-77
2022/09/30 02:03:50;;;;;;;;;;;9.00;99.90;;;;;;5093593;28;19908;-77
2022/09/30 02:06:19;;;;;;;;;;;9.00;99.90;;;;;;5093532;28;19915;-78
2022/09/30 02:09:20;;;;;;;;;;;9.10;99.90;;;;;;5095459;28;20323;-78
2022/09/30 02:11:45;;;;;;;;;;;9.10;99.90;;;;;;4999123;28;20005;-76
2022/09/30 02:14:18;;;;;;;;;;;9.00;99.90;;;;;;5080093;28;19944;-76
2022/09/30 02:16:48;;;;;;;;;;;9.00;99.90;;;;;;5097627;28;19951;-78
2022/09/30 02:19:14;;;;;;;;;;;9.00;99.90;;;;;;5097515;28;19934;-79
2022/09/30 02:21:41;;;;;;;;;;;9.00;99.90;;;;;;5097469;28;19908;-76
2022/09/30 02:24:08;;;;;;;;;;;8.70;99.90;;;;;;5097648;28;19916;-77
2022/09/30 02:26:39;;;;;;;;;;;8.80;99.90;;;;;;5097844;28;20348;-77
2022/09/30 02:29:26;;;;;;;;;;;8.60;99.90;;;;;;5097365;28;19908;-78
2022/09/30 02:31:54;;;;;;;;;;;8.50;99.90;;;;;;5097152;28;19908;-75
2022/09/30 02:34:23;;;;;;;;;;;8.50;99.90;;;;;;5097274;28;20261;-76
2022/09/30 02:37:09;;;;;;;;;;;8.60;99.90;;;;;;5096504;28;19915;-76
2022/09/30 02:39:37;;;;;;;;;;;8.60;99.90;;;;;;5096497;28;19908;-78
2022/09/30 02:42:07;;;;;;;;;;;8.70;99.90;;;;;;5095849;28;19955;-76
2022/09/30 02:44:34;;;;;;;;;;;8.90;99.90;;;;;;5097196;28;19956;-78
2022/09/30 02:47:10;;;;;;;;;;;8.90;99.90;;;;;;5105342;28;19980;-79
2022/09/30 02:49:44;;;;;;;;;;;8.80;99.90;;;;;;5117525;28;19907;-75
2022/09/30 02:52:19;;;;;;;;;;;8.70;99.90;;;;;;5098792;28;19930;-77
2022/09/30 02:54:47;;;;;;;;;;;8.30;99.90;;;;;;5098695;28;20283;-75
2022/09/30 02:57:14;;;;;;;;;;;8.30;99.90;;;;;;5117229;28;19911;-77
2022/09/30 02:59:40;;;;;;;;;;;8.30;99.90;;;;;;5117178;28;20382;-76
2022/09/30 03:02:06;;;;;;;;;;;8.10;99.90;;;;;;5117126;28;19947;-76
2022/09/30 03:04:33;;;;;;;;;;;8.10;99.90;;;;;;5117049;28;19939;-76
2022/09/30 03:06:59;;;;;;;;;;;8.30;99.90;;;;;;5098687;28;20435;-75
2022/09/30 03:09:25;;;;;;;;;;;8.50;99.90;;;;;;5117072;28;19951;-76
2022/09/30 03:11:54;;;;;;;;;;;8.60;99.90;;;;;;5117077;28;19914;-75
2022/09/30 03:14:35;;;;;;;;;;;8.60;99.90;;;;;;5116870;28;19908;-76
2022/09/30 03:17:19;;;;;;;;;;;8.60;99.90;;;;;;5117234;28;19912;-74
2022/09/30 03:19:45;;;;;;;;;;;8.30;99.90;;;;;;5097942;28;20257;-77
2022/09/30 03:22:29;;;;;;;;;;;8.50;99.90;;;;;;5116743;28;19915;-76
2022/09/30 03:25:02;;;;;;;;;;;8.50;99.90;;;;;;5116818;28;19912;-74
2022/09/30 03:27:51;;;;;;;;;;;8.40;99.90;;;;;;5116746;28;19919;-76
2022/09/30 03:30:18;;;;;;;;;;;8.40;99.90;;;;;;5069122;28;19907;-79
2022/09/30 03:32:44;;;;;;;;;;;8.50;99.90;;;;;;5116528;28;19911;-78
2022/09/30 03:35:24;;;;;;;;;;;8.70;99.90;;;;;;5098794;28;19914;-75
2022/09/30 03:37:50;;;;;;;;;;;8.80;99.90;;;;;;5098080;28;20006;-78
2022/09/30 03:40:24;;;;;;;;;;;8.90;99.90;;;;;;5116391;28;19939;-77
2022/09/30 03:42:54;;;;;;;;;;;9.00;99.90;;;;;;5116600;28;20421;-75
2022/09/30 03:45:34;;;;;;;;;;;9.00;99.90;;;;;;5116300;28;19908;-75
2022/09/30 03:48:02;;;;;;;;;;;8.70;99.90;;;;;;5115741;28;19969;-75
2022/09/30 03:50:30;;;;;;;;;;;8.70;99.90;;;;;;5116382;28;19915;-77
2022/09/30 03:52:55;;;;;;;;;;;8.70;99.90;;;;;;5116254;28;20380;-74
2022/09/30 03:55:22;;;;;;;;;;;8.70;99.90;;;;;;5097812;28;19915;-78
2022/09/30 03:57:48;;;;;;;;;;;8.80;99.90;;;;;;5116084;28;20430;-76
2022/09/30 04:00:14;;;;;;;;;;;8.70;99.90;;;;;;5115968;28;20291;-79
2022/09/30 04:02:40;;;;;;;;;;;8.80;99.90;;;;;;5115911;28;19908;-74
2022/09/30 04:05:06;;;;;;;;;;;8.80;99.90;;;;;;5097632;28;19915;-76
2022/09/30 04:07:31;;;;;;;;;;;8.80;99.90;;;;;;5115905;28;19911;-78
2022/09/30 04:09:57;;;;;;;;;;;8.60;99.90;;;;;;5115926;28;19964;-76
2022/09/30 04:12:22;;;;;;;;;;;8.40;99.90;;;;;;5115813;28;20403;-78
2022/09/30 04:14:48;;;;;;;;;;;8.40;99.90;;;;;;5115680;28;19943;-75
2022/09/30 04:17:13;;;;;;;;;;;8.40;99.90;;;;;;5115266;28;19908;-73
2022/09/30 04:19:39;;;;;;;;;;;8.30;99.90;;;;;;5115633;28;19915;-77
2022/09/30 04:22:05;;;;;;;;;;;8.20;99.90;;;;;;5115759;28;19990;-77
2022/09/30 04:24:31;;;;;;;;;;;8.20;99.90;;;;;;5097239;28;19958;-77
2022/09/30 04:26:57;;;;;;;;;;;8.10;99.90;;;;;;5115408;28;19955;-76
2022/09/30 04:29:22;;;;;;;;;;;8.30;99.90;;;;;;5115714;28;19908;-78
2022/09/30 04:31:48;;;;;;;;;;;8.30;99.90;;;;;;5114513;28;19953;-75
2022/09/30 04:34:14;;;;;;;;;;;8.30;99.90;;;;;;5115578;28;19914;-76
2022/09/30 04:36:39;;;;;;;;;;;8.20;99.90;;;;;;5097497;28;19930;-77
2022/09/30 04:39:05;;;;;;;;;;;8.10;99.90;;;;;;5115215;28;19907;-77
2022/09/30 04:41:32;;;;;;;;;;;8.20;99.90;;;;;;5115174;28;19908;-78
2022/09/30 04:43:59;;;;;;;;;;;8.20;99.90;;;;;;5115189;28;19995;-77
2022/09/30 04:46:24;;;;;;;;;;;8.20;99.90;;;;;;5114895;28;19923;-76
2022/09/30 04:48:50;;;;;;;;;;;8.20;99.90;;;;;;5115102;28;20034;-77
2022/09/30 04:51:19;;;;;;;;;;;8.30;99.90;;;;;;5114987;28;19962;-77
2022/09/30 04:53:45;;;;;;;;;;;8.00;99.90;;;;;;5115035;28;19943;-76
2022/09/30 04:56:11;;;;;;;;;;;8.00;99.90;;;;;;5115006;28;19915;-74
2022/09/30 04:58:36;;;;;;;;;;;8.00;99.90;;;;;;5114894;28;19908;-80
2022/09/30 05:01:03;;;;;;;;;;;8.00;99.90;;;;;;5115315;28;19908;-79
2022/09/30 05:03:29;;;;;;;;;;;7.70;99.90;;;;;;5114946;28;19908;-77
2022/09/30 05:05:55;;;;;;;;;;;7.70;99.90;;;;;;5114790;28;20336;-79
2022/09/30 05:08:23;;;;;;;;;;;7.80;99.90;;;;;;5096509;28;20415;-80
2022/09/30 05:10:56;;;;;;;;;;;7.70;99.90;;;;;;5114580;28;19908;-80
2022/09/30 05:13:25;;;;;;;;;;;7.80;99.90;;;;;;5114980;28;19957;-80
2022/09/30 05:15:51;;;;;;;;;;;7.90;99.90;;;;;;5114706;28;19990;-77
2022/09/30 05:18:18;;;;;;;;;;;7.90;99.90;;;;;;5114546;28;19989;-81
2022/09/30 05:20:44;;;;;;;;;;;7.80;99.90;;;;;;5114554;28;19918;-79
2022/09/30 05:23:09;;;;;;;;;;;7.80;99.90;;;;;;5114454;28;19912;-79
2022/09/30 05:25:35;;;;;;;;;;;7.70;99.90;;;;;;5114051;28;19915;-80
2022/09/30 05:28:00;;;;;;;;;;;7.80;99.90;;;;;;5114575;28;19916;-80
2022/09/30 05:30:26;;;;;;;;;;;7.80;99.90;;;;;;5114372;28;20383;-81
2022/09/30 05:32:52;;;;;;;;;;;7.80;99.90;;;;;;5114375;28;20276;-76
2022/09/30 05:35:17;;;;;;;;;;;7.90;99.90;;;;;;5096496;28;19908;-81
2022/09/30 05:37:43;;;;;;;;;;;7.90;99.90;;;;;;5114637;28;19919;-77
2022/09/30 05:40:09;;;;;;;;;;;7.90;99.90;;;;;;5114308;28;20314;-79
2022/09/30 05:42:34;;;;;;;;;;;7.90;99.90;;;;;;5114134;28;19915;-77
2022/09/30 05:45:00;;;;;;;;;;;7.90;99.90;;;;;;5114074;28;19998;-75
2022/09/30 05:47:26;;;;;;;;;;;7.80;99.90;;;;;;5113660;28;20007;-78
2022/09/30 05:49:52;;;;;;;;;;;7.80;99.90;;;;;;5113951;28;19908;-76
2022/09/30 05:52:17;;;;;;;;;;;7.80;99.90;;;;;;5114361;28;19915;-76
2022/09/30 05:54:43;;;;;;;;;;;7.60;99.90;;;;;;5114018;28;20002;-74
2022/09/30 05:57:08;;;;;;;;;;;7.40;99.90;;;;;;5113988;28;19908;-76
2022/09/30 05:59:34;;;;;;;;;;;7.10;99.90;;;;;;5114252;28;19908;-77
2022/09/30 06:02:00;;;;;;;;;;;7.40;99.90;;;;;;5113988;28;20268;-77
2022/09/30 06:04:25;;;;;;;;;;;7.30;99.90;;;;;;5113988;28;20329;-79
2022/09/30 06:06:51;;;;;;;;;;;7.30;99.90;;;;;;5114410;28;19912;-74
2022/09/30 06:09:17;;;;;;;;;;;7.50;99.90;;;;;;5114384;28;20382;-77
2022/09/30 06:11:42;;;;;;;;;;;7.60;99.90;;;;;;5113948;28;19956;-78
2022/09/30 06:14:08;;;;;;;;;;;7.80;99.90;;;;;;5113892;28;19908;-75
2022/09/30 06:16:33;;;;;;;;;;;7.80;99.90;;;;;;5113915;28;19919;-75
2022/09/30 06:18:59;;;;;;;;;;;7.90;99.90;;;;;;5113914;28;19971;-78
2022/09/30 06:21:24;;;;;;;;;;;7.90;99.90;;;;;;5113845;28;20264;-78
2022/09/30 06:23:50;;;;;;;;;;;8.00;99.90;;;;;;5113830;28;19908;-78
2022/09/30 06:26:15;;;;;;;;;;;8.10;99.90;;;;;;5113845;28;20011;-77
2022/09/30 06:28:41;;;;;;;;;;;8.20;99.90;;;;;;5113804;28;19908;-73
2022/09/30 06:31:07;;;;;;;;;;;8.70;99.90;;;;;;5113785;28;20275;-75
2022/09/30 06:33:33;;;;;;;;;;;9.10;99.90;;;;;;5113837;28;20379;-75
2022/09/30 06:36:03;;;;;;;;;;;9.30;99.90;;;;;;5114243;28;19908;-76
2022/09/30 06:38:29;;;;;;;;;;;9.90;99.90;;;;;;5113694;28;19939;-76
2022/09/30 06:40:55;;;;;;;;;;;10.30;99.90;;;;;;5113859;28;19961;-76
2022/09/30 06:43:21;;;;;;;;;;;10.50;99.90;;;;;;5113734;28;19907;-75
2022/09/30 06:45:47;;;;;;;;;;;10.40;99.90;;;;;;5113520;28;20333;-76
2022/09/30 06:48:12;;;;;;;;;;;9.70;99.90;;;;;;5113034;28;19920;-79
2022/09/30 06:50:38;;;;;;;;;;;9.40;99.90;;;;;;5113493;28;19930;-77
2022/09/30 06:53:05;;;;;;;;;;;9.90;99.90;;;;;;5113494;28;19970;-76
2022/09/30 06:55:32;;;;;;;;;;;10.50;99.90;;;;;;5116667;28;20260;-77
2022/09/30 06:57:57;;;;;;;;;;;11.00;99.90;;;;;;5117330;28;19990;-78
2022/09/30 07:00:24;;;;;;;;;;;11.10;99.90;;;;;;5117233;28;19950;-78
2022/09/30 07:02:50;;;;;;;;;;;11.50;99.90;;;;;;5117142;28;19992;-76
2022/09/30 07:05:16;;;;;;;;;;;11.90;99.90;;;;;;5117383;28;19947;-79
2022/09/30 07:07:42;;;;;;;;;;;12.30;99.90;;;;;;5117014;28;19911;-77
2022/09/30 07:10:08;;;;;;;;;;;12.80;99.90;;;;;;5117228;28;20268;-78
2022/09/30 07:12:34;;;;;;;;;;;13.10;99.90;;;;;;5098669;28;19977;-75
2022/09/30 07:15:00;;;;;;;;;;;13.20;99.90;;;;;;5117271;28;20330;-79
2022/09/30 07:17:26;;;;;;;;;;;13.40;99.90;;;;;;5117008;28;19956;-77
2022/09/30 07:19:52;;;;;;;;;;;13.40;99.90;;;;;;5116773;28;19912;-78
2022/09/30 07:22:30;;;;;;;;;;;13.30;99.90;;;;;;5116787;28;20395;-77
2022/09/30 07:24:57;;;;;;;;;;;13.30;99.90;;;;;;5116974;28;19991;-77
2022/09/30 07:27:23;;;;;;;;;;;13.60;99.90;;;;;;5116583;28;19912;-77
2022/09/30 07:29:48;;;;;;;;;;;14.00;99.90;;;;;;5116763;28;20086;-78
2022/09/30 07:32:14;;;;;;;;;;;14.60;99.90;;;;;;5116567;28;19907;-80
2022/09/30 07:34:41;;;;;;;;;;;15.20;99.90;;;;;;5116633;28;20364;-76
2022/09/30 07:37:11;;;;;;;;;;;15.90;99.90;;;;;;5117094;28;19915;-78
2022/09/30 07:39:37;;;;;;;;;;;16.70;99.90;;;;;;5116554;28;19973;-79
2022/09/30 07:42:04;;;;;;;;;;;17.40;99.90;;;;;;5116337;28;19933;-78
2022/09/30 07:44:30;;;;;;;;;;;18.00;99.90;;;;;;5116236;28;20364;-75
2022/09/30 07:46:56;;;;;;;;;;;18.60;99.90;;;;;;5116187;28;19920;-76
2022/09/30 07:49:24;;;;;;;;;;;19.30;99.90;;;;;;5116219;28;19908;-75
2022/09/30 07:51:51;;;;;;;;;;;19.70;99.90;;;;;;5116600;28;19908;-79
2022/09/30 07:54:19;;;;;;;;;;;20.30;99.90;;;;;;5116456;28;20018;-79
2022/09/30 07:56:45;;;;;;;;;;;20.60;99.90;;;;;;5116155;28;19908;-76
2022/09/30 07:59:11;;;;;;;;;;;20.70;99.50;;;;;;5116098;28;20045;-78
2022/09/30 08:01:37;;;;;;;;;;;21.00;99.30;;;;;;5116244;28;19951;-79
2022/09/30 08:04:04;;;;;;;;;;;21.40;97.70;;;;;;5116206;28;19908;-78
2022/09/30 08:06:31;;;;;;;;;;;21.60;97.50;;;;;;5115874;28;19921;-78
2022/09/30 08:08:57;;;;;;;;;;;20.80;95.40;;;;;;5115969;28;19915;-77
2022/09/30 08:11:24;;;;;;;;;;;20.00;96.10;;;;;;5116476;28;19919;-79
2022/09/30 08:13:50;;;;;;;;;;;18.80;98.50;;;;;;5115995;28;20387;-79
2022/09/30 08:16:16;;;;;;;;;;;18.00;99.90;;;;;;5116384;28;19908;-77
2022/09/30 08:18:41;;;;;;;;;;;19.10;99.90;;;;;;5115722;28;19914;-78
2022/09/30 08:21:07;;;;;;;;;;;20.50;99.40;;;;;;5115630;28;19907;-79
2022/09/30 08:23:33;;;;;;;;;;;21.40;97.40;;;;;;5115607;28;19991;-80
2022/09/30 08:26:03;;;;;;;;;;;22.00;95.10;;;;;;5115795;28;20321;-76
2022/09/30 08:28:30;;;;;;;;;;;21.60;96.10;;;;;;5115335;28;19965;-76
2022/09/30 08:31:16;;;;;;;;;;;22.40;95.00;;;;;;5115399;28;19912;-79
2022/09/30 08:33:42;;;;;;;;;;;22.90;93.80;;;;;;5115598;28;19915;-78
2022/09/30 08:36:08;;;;;;;;;;;23.60;92.00;;;;;;5115994;28;19994;-79
2022/09/30 08:38:35;;;;;;;;;;;23.50;92.60;;;;;;5115921;28;19912;-80
2022/09/30 08:41:03;;;;;;;;;;;23.60;89.80;;;;;;5097433;28;19977;-80
2022/09/30 08:43:45;;;;;;;;;;;23.10;90.50;;;;;;5115445;28;19957;-76
2022/09/30 08:46:24;;;;;;;;;;;23.70;91.50;;;;;;5114957;28;19915;-74
2022/09/30 08:49:16;;;;;;;;;;;26.20;88.30;;;;;;5096760;28;20364;-77
2022/09/30 08:51:44;;;;;;;;;;;27.00;82.50;;;;;;5109876;28;20397;-78
2022/09/30 08:54:15;;;;;;;;;;;27.80;78.80;;;;;;5115066;28;20364;-78
2022/09/30 08:56:43;;;;;;;;;;;27.80;77.00;;;;;;5096639;28;19915;-76
2022/09/30 08:59:11;;;;;;;;;;;27.20;74.70;;;;;;5114843;28;19938;-78
2022/09/30 09:01:45;;;;;;;;;;;28.40;72.10;;;;;;5114783;28;20383;-76
2022/09/30 09:04:11;;;;;;;;;;;28.20;70.20;;;;;;5114992;28;19952;-80
2022/09/30 09:06:49;;;;;;;;;;;28.10;70.10;;;;;;5096552;28;19911;-77
2022/09/30 09:09:17;;;;;;;;;;;28.70;68.80;;;;;;5114746;28;19922;-80
2022/09/30 09:12:02;;;;;;;;;;;28.50;67.30;;;;;;5114836;28;20364;-76
2022/09/30 09:14:33;;;;;;;;;;;28.00;67.50;;;;;;5096423;28;19968;-77
2022/09/30 09:17:17;;;;;;;;;;;27.70;69.80;;;;;;5114315;28;19945;-79
2022/09/30 09:19:58;;;;;;;;;;;28.10;69.30;;;;;;5114780;28;19908;-78
2022/09/30 09:22:25;;;;;;;;;;;29.50;69.10;;;;;;5114589;28;19926;-79
2022/09/30 09:24:52;;;;;;;;;;;30.60;64.60;;;;;;5114466;28;20068;-77
2022/09/30 09:27:56;;;;;;;;;;;30.70;63.20;;;;;;5114782;28;19912;-76
2022/09/30 09:30:23;;;;;;;;;;;31.90;59.20;;;;;;5012225;28;20414;-77
2022/09/30 09:32:51;;;;;;;;;;;30.90;59.90;;;;;;4995662;28;19956;-79
2022/09/30 09:35:26;;;;;;;;;;;30.20;59.70;;;;;;5062014;28;20288;-75
2022/09/30 09:38:27;;;;;;;;;;;28.70;62.10;;;;;;5115221;28;19969;-78
2022/09/30 09:41:06;;;;;;;;;;;28.80;62.10;;;;;;5114282;28;19989;-77
2022/09/30 09:43:49;;;;;;;;;;;27.90;63.40;;;;;;5114595;28;19947;-77
2022/09/30 09:46:25;;;;;;;;;;;28.00;64.50;;;;;;5114474;28;20003;-79
2022/09/30 09:49:10;;;;;;;;;;;27.70;64.30;;;;;;5114268;28;19965;-77
2022/09/30 09:51:38;;;;;;;;;;;26.50;66.20;;;;;;5114167;28;19908;-80
2022/09/30 09:54:04;;;;;;;;;;;24.90;67.70;;;;;;5114183;28;20430;-78
2022/09/30 09:56:32;;;;;;;;;;;23.80;70.50;;;;;;5095861;28;19908;-78
2022/09/30 09:59:14;;;;;;;;;;;23.80;71.90;;;;;;5095874;28;19908;-78
2022/09/30 10:01:52;;;;;;;;;;;23.90;73.80;;;;;;5114117;28;19911;-78
2022/09/30 10:04:26;;;;;;;;;;;24.20;72.20;;;;;;5114057;28;20301;-78
2022/09/30 10:06:53;;;;;;;;;;;24.40;70.10;;;;;;5114128;28;20018;-78
2022/09/30 10:09:26;;;;;;;;;;;23.50;69.80;;;;;;5114036;28;19953;-75
2022/09/30 10:12:18;;;;;;;;;;;23.00;70.80;;;;;;5113915;28;19907;-76
2022/09/30 10:14:51;;;;;;;;;;;22.90;71.20;;;;;;5108819;28;19957;-76
2022/09/30 10:17:28;;;;;;;;;;;22.60;73.40;;;;;;5114014;28;19908;-78
2022/09/30 10:19:56;;;;;;;;;;;22.60;73.10;;;;;;5095361;28;20433;-79
2022/09/30 10:22:25;;;;;;;;;;;23.20;74.60;;;;;;5113885;28;19915;-80
2022/09/30 10:24:50;;;;;;;;;;;24.00;73.00;;;;;;5113826;28;19908;-80
2022/09/30 10:27:29;;;;;;;;;;;24.10;72.30;;;;;;5113840;28;20268;-79
2022/09/30 10:29:55;;;;;;;;;;;24.40;72.40;;;;;;5115898;28;19907;-77
2022/09/30 10:32:21;;;;;;;;;;;25.20;70.00;;;;;;5117752;28;19908;-77
2022/09/30 10:34:53;;;;;;;;;;;25.70;70.60;;;;;;5118139;28;20296;-77
2022/09/30 10:37:22;;;;;;;;;;;26.30;67.30;;;;;;5118460;28;19915;-77
2022/09/30 10:39:56;;;;;;;;;;;25.70;66.70;;;;;;5117642;28;19908;-81
2022/09/30 10:42:26;;;;;;;;;;;25.70;67.90;;;;;;5118455;28;20318;-79
2022/09/30 10:45:18;;;;;;;;;;;25.10;68.10;;;;;;5108779;28;19913;-79
2022/09/30 10:47:47;;;;;;;;;;;26.10;67.40;;;;;;5096370;28;19930;-78
2022/09/30 10:50:16;;;;;;;;;;;27.30;66.00;;;;;;5106373;28;19974;-77
2022/09/30 10:52:58;;;;;;;;;;;26.40;65.70;;;;;;5105621;28;20295;-77
2022/09/30 10:55:23;;;;;;;;;;;26.10;65.60;;;;;;5107715;28;20346;-77
2022/09/30 10:57:50;;;;;;;;;;;24.50;66.50;;;;;;5105768;28;19908;-77
2022/09/30 11:00:18;;;;;;;;;;;23.40;67.90;;;;;;5106462;28;19914;-78
2022/09/30 11:02:44;;;;;;;;;;;23.70;70.60;;;;;;5089312;28;19916;-78
2022/09/30 11:05:18;;;;;;;;;;;23.20;69.20;;;;;;5105548;28;19953;-77
2022/09/30 11:08:02;;;;;;;;;;;23.00;71.40;;;;;;5105094;28;19920;-77
2022/09/30 11:10:37;;;;;;;;;;;22.50;70.80;;;;;;5105384;28;19908;-78
2022/09/30 11:13:09;;;;;;;;;;;21.90;73.40;;;;;;5105120;28;19909;-78
2022/09/30 11:15:41;;;;;;;;;;;21.30;75.40;;;;;;5106088;28;19951;-78
2022/09/30 11:18:10;;;;;;;;;;;21.10;76.30;;;;;;5105033;28;19908;-77
2022/09/30 11:20:44;;;;;;;;;;;21.10;76.40;;;;;;5107366;28;19908;-79
2022/09/30 11:23:29;;;;;;;;;;;21.10;77.10;;;;;;5105356;28;19909;-78
2022/09/30 11:26:07;;;;;;;;;;;21.60;75.90;;;;;;5108911;28;19908;-76
2022/09/30 11:28:38;;;;;;;;;;;21.80;76.60;;;;;;5116554;28;19912;-80
2022/09/30 11:31:14;;;;;;;;;;;22.50;75.00;;;;;;5116527;28;19912;-78
2022/09/30 11:33:39;;;;;;;;;;;22.60;74.10;;;;;;5116580;28;19908;-77
2022/09/30 11:36:14;;;;;;;;;;;23.00;73.70;;;;;;5108823;28;19919;-79
2022/09/30 11:38:43;;;;;;;;;;;23.20;72.60;;;;;;5097311;28;20395;-77
2022/09/30 11:41:27;;;;;;;;;;;24.00;71.30;;;;;;5095869;28;20037;-78
2022/09/30 11:44:11;;;;;;;;;;;25.60;69.50;;;;;;5095935;28;20257;-78
2022/09/30 11:46:42;;;;;;;;;;;26.50;66.10;;;;;;5095666;28;19931;-80
2022/09/30 11:49:14;;;;;;;;;;;28.90;63.10;;;;;;5096055;28;19939;-78
2022/09/30 11:51:58;;;;;;;;;;;32.30;57.50;;;;;;5095846;28;19990;-78
2022/09/30 11:54:23;;;;;;;;;;;34.10;52.40;;;;;;5095930;28;19908;-78
2022/09/30 11:56:49;;;;;;;;;;;35.20;49.00;;;;;;5095972;28;19915;-78
2022/09/30 11:59:18;;;;;;;;;;;35.10;48.60;;;;;;5095742;28;19908;-80
2022/09/30 12:01:46;;;;;;;;;;;34.90;47.70;;;;;;5095652;28;19918;-80
2022/09/30 12:04:17;;;;;;;;;;;35.60;46.40;;;;;;5095613;28;19909;-80
2022/09/30 12:06:47;;;;;;;;;;;34.80;47.00;;;;;;5095508;28;19933;-81
2022/09/30 12:09:17;;;;;;;;;;;32.70;46.70;;;;;;5095545;28;19908;-80
2022/09/30 12:11:55;;;;;;;;;;;29.70;49.50;;;;;;5095448;28;20002;-78
2022/09/30 12:14:41;;;;;;;;;;;28.40;52.30;;;;;;5095627;28;19912;-77
2022/09/30 12:17:10;;;;;;;;;;;27.30;53.90;;;;;;5094734;28;20402;-78
2022/09/30 12:19:42;;;;;;;;;;;27.00;54.00;;;;;;5095236;28;19958;-78
2022/09/30 12:22:21;;;;;;;;;;;26.20;57.30;;;;;;5095720;28;19955;-80
2022/09/30 12:24:47;;;;;;;;;;;27.20;58.30;;;;;;5095217;28;19954;-76
2022/09/30 12:27:19;;;;;;;;;;;26.80;56.20;;;;;;5095017;28;19955;-77
2022/09/30 12:30:16;;;;;;;;;;;25.60;59.30;;;;;;5095031;28;19953;-79
2022/09/30 12:33:21;;;;;;;;;;;24.80;61.00;;;;;;5076780;28;19908;-80
2022/09/30 12:35:52;;;;;;;;;;;24.60;62.90;;;;;;5013234;28;20330;-76
2022/09/30 12:38:24;;;;;;;;;;;23.30;65.60;;;;;;5013525;28;19948;-78
2022/09/30 12:41:06;;;;;;;;;;;23.20;66.60;;;;;;5057782;28;19908;-77
2022/09/30 12:43:48;;;;;;;;;;;22.80;68.60;;;;;;5095297;28;19908;-80
2022/09/30 12:46:16;;;;;;;;;;;22.50;69.30;;;;;;5094522;28;19934;-79
2022/09/30 12:48:42;;;;;;;;;;;22.00;70.80;;;;;;5094944;28;19912;-77
2022/09/30 12:51:08;;;;;;;;;;;21.70;72.60;;;;;;5094823;28;20007;-79
2022/09/30 12:53:37;;;;;;;;;;;21.40;74.20;;;;;;5094183;28;20445;-77
2022/09/30 12:56:05;;;;;;;;;;;20.80;76.80;;;;;;5094537;28;19908;-75
2022/09/30 12:58:33;;;;;;;;;;;20.50;78.40;;;;;;5094480;28;20008;-81
2022/09/30 13:01:05;;;;;;;;;;;20.20;79.50;;;;;;5094500;28;19944;-77
2022/09/30 13:04:03;;;;;;;;;;;20.20;81.60;;;;;;5094560;28;20372;-76
2022/09/30 13:06:43;;;;;;;;;;;20.20;82.70;;;;;;5049410;28;19908;-78
2022/09/30 13:09:15;;;;;;;;;;;20.30;83.30;;;;;;5094341;28;19916;-76
2022/09/30 13:12:01;;;;;;;;;;;20.40;84.90;;;;;;5094357;28;19908;-76
2022/09/30 13:14:35;;;;;;;;;;;20.60;83.40;;;;;;5080075;28;19916;-77
2022/09/30 13:17:06;;;;;;;;;;;20.60;85.10;;;;;;5094362;28;19919;-76
2022/09/30 13:19:39;;;;;;;;;;;20.30;85.80;;;;;;5094465;28;19908;-80
2022/09/30 13:22:19;;;;;;;;;;;20.10;86.90;;;;;;5094166;28;19918;-76
2022/09/30 13:24:57;;;;;;;;;;;19.70;86.90;;;;;;5094096;28;19908;-77
2022/09/30 13:27:38;;;;;;;;;;;19.50;90.30;;;;;;5094282;28;19934;-76
2022/09/30 13:30:15;;;;;;;;;;;19.40;90.10;;;;;;5093945;28;20369;-78
2022/09/30 13:32:42;;;;;;;;;;;19.20;90.70;;;;;;5094001;28;19908;-77
2022/09/30 13:35:28;;;;;;;;;;;19.00;91.70;;;;;;5094175;28;19908;-77
2022/09/30 13:38:11;;;;;;;;;;;19.20;91.80;;;;;;5094702;28;19908;-77
2022/09/30 13:40:40;;;;;;;;;;;19.00;92.20;;;;;;5094079;28;20010;-77
2022/09/30 13:43:09;;;;;;;;;;;19.00;93.10;;;;;;5075740;28;20358;-79
2022/09/30 13:45:38;;;;;;;;;;;18.90;93.20;;;;;;5093855;28;19908;-77
2022/09/30 13:48:08;;;;;;;;;;;18.80;93.20;;;;;;5093337;28;20296;-79
2022/09/30 13:50:41;;;;;;;;;;;18.70;93.40;;;;;;5075612;28;20089;-76
2022/09/30 13:53:11;;;;;;;;;;;18.50;93.70;;;;;;5093954;28;19915;-75
2022/09/30 13:55:40;;;;;;;;;;;18.60;93.70;;;;;;5093945;28;19908;-78
2022/09/30 13:58:29;;;;;;;;;;;18.50;94.50;;;;;;5093764;28;19981;-77
2022/09/30 14:01:12;;;;;;;;;;;18.40;95.00;;;;;;5075309;28;19957;-76
2022/09/30 14:03:38;;;;;;;;;;;18.30;94.40;;;;;;5095535;28;19908;-76
2022/09/30 14:06:22;;;;;;;;;;;18.20;94.60;;;;;;5097871;28;20394;-79
2022/09/30 14:09:00;;;;;;;;;;;18.20;95.30;;;;;;5097972;28;20402;-78
2022/09/30 14:11:32;;;;;;;;;;;18.20;95.20;;;;;;5079586;28;19909;-78
2022/09/30 14:13:58;;;;;;;;;;;18.20;95.50;;;;;;5098035;28;19908;-78
2022/09/30 14:16:38;;;;;;;;;;;18.20;95.80;;;;;;5097751;28;20353;-78
2022/09/30 14:19:13;;;;;;;;;;;18.20;96.00;;;;;;5097764;28;20273;-75
2022/09/30 14:21:41;;;;;;;;;;;18.20;96.00;;;;;;5097773;28;19908;-76
2022/09/30 14:24:13;;;;;;;;;;;18.10;96.30;;;;;;5097519;28;19908;-76
2022/09/30 14:26:42;;;;;;;;;;;18.10;97.30;;;;;;5097395;28;20391;-77
2022/09/30 14:29:23;;;;;;;;;;;17.90;96.80;;;;;;5097412;28;19947;-79
2022/09/30 14:31:49;;;;;;;;;;;17.80;97.70;;;;;;5098086;28;19912;-76
2022/09/30 14:34:16;;;;;;;;;;;17.80;98.70;;;;;;5097437;28;20287;-75
2022/09/30 14:36:42;;;;;;;;;;;17.80;99.30;;;;;;5097835;28;19908;-79
2022/09/30 14:39:20;;;;;;;;;;;17.80;99.30;;;;;;5097330;28;20292;-79
2022/09/30 14:41:48;;;;;;;;;;;17.90;99.90;;;;;;5078905;28;19913;-75
2022/09/30 14:44:16;;;;;;;;;;;17.90;99.90;;;;;;5097044;28;19995;-75